»·PEaware :: DCM206 KSNA-KSNA

DCM206 :: KSNA-KSNA

FLIGHT INFORMATION

Flight Status: Arrived
Operator:
DotCom
More flights by this operator :: More flights under this callsign
Pilot: Nick L. (7253)
Aircraft: BOEING 737-800
(B738)
More flights by this aircraft type
Origin: KSNA John Wayne-Orange Co
United States
Destination: KSNA John Wayne-Orange Co
United States
More flights between these airports :: More routes between these airports
Route: SLI
File this flight plan on PilotEdge
Remarks: Multiple approaches to be conducted at SNA
Altitude:
(Current/Filed)
5,000ft
Speed:
(Current/Filed)
250kts
Departed: 19-Feb-21 12:30 PM
Arrived: 19-Feb-21 01:08 PM
Distance/Time
Traveled:
0nm/0:37
Distance/Time
To Go:
Arrived

Flight Plot

Page will automatically refresh every two minutes.


Map Options




Map Legend


Flown Route
Filed Route
Departure Airport
Arrival Airport
Navaid (VOR, NDB)
Fix

Horizontal Profiles

Position Reports

Time Latitude Longitude Heading Altitude Ground
Speed
19-Feb-21 12:14 33.672446 -117.866851 210 65ft 0kts
19-Feb-21 12:15 33.672446 -117.866851 210 65ft 0kts
19-Feb-21 12:16 33.672446 -117.866851 210 65ft 0kts
19-Feb-21 12:17 33.672446 -117.866851 210 65ft 0kts
19-Feb-21 12:18 33.672446 -117.866851 210 65ft 0kts
19-Feb-21 12:19 33.672446 -117.866851 210 65ft 0kts
19-Feb-21 12:20 33.672446 -117.866851 210 65ft 0kts
19-Feb-21 12:21 33.672356 -117.866994 254 65ft 1kts
19-Feb-21 12:22 33.672988 -117.867387 43 65ft 6kts
19-Feb-21 12:23 33.675116 -117.865831 27 65ft 12kts
19-Feb-21 12:24 33.678096 -117.863951 27 65ft 12kts
19-Feb-21 12:25 33.680557 -117.862894 302 65ft 0kts
19-Feb-21 12:26 33.680557 -117.862894 302 65ft 0kts
19-Feb-21 12:27 33.680557 -117.862895 302 65ft 0kts
19-Feb-21 12:28 33.681379 -117.865222 233 65ft 8kts
19-Feb-21 12:29 33.661876 -117.877350 201 836ft 137kts
19-Feb-21 12:30 33.615918 -117.885048 187 2761ft 205kts
19-Feb-21 12:31 33.548498 -117.892919 187 4969ft 268kts
19-Feb-21 12:32 33.476363 -117.896349 168 4973ft 263kts
19-Feb-21 12:33 33.418469 -117.918609 212 4971ft 204kts
19-Feb-21 12:34 33.369526 -117.953093 212 4189ft 203kts
19-Feb-21 12:35 33.332603 -117.997882 279 3315ft 203kts
19-Feb-21 12:36 33.381343 -118.019969 1 2970ft 214kts
19-Feb-21 12:37 33.437548 -118.010067 30 2969ft 206kts
19-Feb-21 12:38 33.490397 -117.984544 23 2962ft 195kts
19-Feb-21 12:39 33.534461 -117.957938 27 2945ft 173kts
19-Feb-21 12:40 33.576689 -117.931369 27 2056ft 162kts
19-Feb-21 12:41 33.613568 -117.908019 28 1220ft 141kts
19-Feb-21 12:42 33.648080 -117.886234 28 498ft 138kts
19-Feb-21 12:43 33.685743 -117.870566 331 1979ft 164kts
19-Feb-21 12:44 33.713621 -117.922066 300 2579ft 204kts
19-Feb-21 12:45 33.743686 -117.979074 301 2579ft 200kts
19-Feb-21 12:46 33.773337 -118.035595 303 2580ft 201kts
19-Feb-21 12:47 33.784861 -118.096413 229 2581ft 210kts
19-Feb-21 12:48 33.735044 -118.084697 130 2590ft 213kts
19-Feb-21 12:49 33.692536 -118.032381 100 2955ft 215kts
19-Feb-21 12:50 33.731919 -117.994548 346 2972ft 202kts
19-Feb-21 12:51 33.772534 -118.040687 313 2979ft 202kts
19-Feb-21 12:52 33.783014 -118.099134 223 2981ft 212kts
19-Feb-21 12:53 33.732804 -118.083539 130 2984ft 216kts
19-Feb-21 12:54 33.697167 -118.029845 98 2965ft 200kts
19-Feb-21 12:55 33.731768 -117.991156 346 2976ft 204kts
19-Feb-21 12:56 33.772194 -118.038969 311 2687ft 213kts
19-Feb-21 12:57 33.781784 -118.097326 220 2754ft 213kts
19-Feb-21 12:58 33.729595 -118.138083 212 4668ft 225kts
19-Feb-21 12:59 33.678875 -118.120587 109 4680ft 225kts
19-Feb-21 13:00 33.683653 -118.045520 80 4689ft 224kts
19-Feb-21 13:01 33.693286 -117.971275 79 4570ft 228kts
19-Feb-21 13:02 33.735957 -117.920027 25 3624ft 232kts
19-Feb-21 13:04 33.787786 -117.880950 62 2601ft 211kts
19-Feb-21 13:05 33.772320 -117.825671 154 1975ft 187kts
19-Feb-21 13:06 33.727902 -117.836026 210 1044ft 137kts
19-Feb-21 13:07 33.694342 -117.856985 206 405ft 134kts
19-Feb-21 13:08 33.670877 -117.871905 208 65ft 25kts
19-Feb-21 13:09 33.669156 -117.871605 122 65ft 0kts

Navigation Log

Ident Type
Flight plan parsing failed, navigation log unavailable